sensor_id;sensor_type;location;lat;lon;timestamp;P1;durP1;ratioP1;P2;durP2;ratioP2
28623;SDS011;15813;46.932;19.658;2024-03-25T00:00:34;24.13;;;21.88;;
28623;SDS011;15813;46.932;19.658;2024-03-25T00:02:59;22.52;;;20.45;;
28623;SDS011;15813;46.932;19.658;2024-03-25T00:05:24;24.83;;;22.35;;
28623;SDS011;15813;46.932;19.658;2024-03-25T00:07:51;23.45;;;21.10;;
28623;SDS011;15813;46.932;19.658;2024-03-25T00:10:16;22.95;;;20.80;;
28623;SDS011;15813;46.932;19.658;2024-03-25T00:12:41;23.40;;;21.15;;
28623;SDS011;15813;46.932;19.658;2024-03-25T00:15:06;21.52;;;19.45;;
28623;SDS011;15813;46.932;19.658;2024-03-25T00:17:32;22.20;;;19.95;;
28623;SDS011;15813;46.932;19.658;2024-03-25T00:19:57;22.52;;;20.25;;
28623;SDS011;15813;46.932;19.658;2024-03-25T00:22:23;23.63;;;21.30;;
28623;SDS011;15813;46.932;19.658;2024-03-25T00:24:50;22.30;;;19.77;;
28623;SDS011;15813;46.932;19.658;2024-03-25T00:27:16;22.38;;;20.10;;
28623;SDS011;15813;46.932;19.658;2024-03-25T00:29:42;21.92;;;19.92;;
28623;SDS011;15813;46.932;19.658;2024-03-25T00:32:07;21.25;;;19.15;;
28623;SDS011;15813;46.932;19.658;2024-03-25T00:34:33;24.92;;;19.77;;
28623;SDS011;15813;46.932;19.658;2024-03-25T00:37:01;20.42;;;17.98;;
28623;SDS011;15813;46.932;19.658;2024-03-25T00:39:27;25.30;;;22.58;;
28623;SDS011;15813;46.932;19.658;2024-03-25T00:41:53;17.50;;;15.73;;
28623;SDS011;15813;46.932;19.658;2024-03-25T00:44:18;21.20;;;18.92;;
28623;SDS011;15813;46.932;19.658;2024-03-25T00:46:44;19.83;;;17.92;;
28623;SDS011;15813;46.932;19.658;2024-03-25T00:49:10;18.13;;;16.40;;
28623;SDS011;15813;46.932;19.658;2024-03-25T00:51:35;20.70;;;17.73;;
28623;SDS011;15813;46.932;19.658;2024-03-25T00:54:01;21.33;;;19.08;;
28623;SDS011;15813;46.932;19.658;2024-03-25T00:56:26;19.65;;;17.67;;
28623;SDS011;15813;46.932;19.658;2024-03-25T00:58:51;17.45;;;15.75;;
28623;SDS011;15813;46.932;19.658;2024-03-25T01:01:17;17.67;;;16.05;;
28623;SDS011;15813;46.932;19.658;2024-03-25T01:03:42;18.77;;;16.88;;
28623;SDS011;15813;46.932;19.658;2024-03-25T01:06:08;19.73;;;17.70;;
28623;SDS011;15813;46.932;19.658;2024-03-25T01:08:33;18.80;;;16.85;;
28623;SDS011;15813;46.932;19.658;2024-03-25T01:10:59;23.45;;;21.05;;
28623;SDS011;15813;46.932;19.658;2024-03-25T01:13:25;21.30;;;19.35;;
28623;SDS011;15813;46.932;19.658;2024-03-25T01:15:51;23.58;;;21.42;;
28623;SDS011;15813;46.932;19.658;2024-03-25T01:18:16;18.00;;;16.52;;
28623;SDS011;15813;46.932;19.658;2024-03-25T01:20:42;22.17;;;19.95;;
28623;SDS011;15813;46.932;19.658;2024-03-25T01:23:07;21.45;;;19.40;;
28623;SDS011;15813;46.932;19.658;2024-03-25T01:25:32;21.25;;;19.30;;
28623;SDS011;15813;46.932;19.658;2024-03-25T01:27:58;22.08;;;19.95;;
28623;SDS011;15813;46.932;19.658;2024-03-25T01:30:23;20.75;;;18.77;;
28623;SDS011;15813;46.932;19.658;2024-03-25T01:32:48;23.15;;;21.13;;
28623;SDS011;15813;46.932;19.658;2024-03-25T01:35:14;21.35;;;19.60;;
28623;SDS011;15813;46.932;19.658;2024-03-25T01:37:40;23.27;;;21.08;;
28623;SDS011;15813;46.932;19.658;2024-03-25T01:40:06;22.92;;;20.80;;
28623;SDS011;15813;46.932;19.658;2024-03-25T01:42:31;24.15;;;21.80;;
28623;SDS011;15813;46.932;19.658;2024-03-25T01:44:57;25.30;;;22.65;;
28623;SDS011;15813;46.932;19.658;2024-03-25T01:47:22;21.02;;;19.10;;
28623;SDS011;15813;46.932;19.658;2024-03-25T01:49:47;22.27;;;20.17;;
28623;SDS011;15813;46.932;19.658;2024-03-25T01:52:14;22.60;;;20.52;;
28623;SDS011;15813;46.932;19.658;2024-03-25T01:54:40;25.70;;;23.08;;
28623;SDS011;15813;46.932;19.658;2024-03-25T01:57:05;25.80;;;23.48;;
28623;SDS011;15813;46.932;19.658;2024-03-25T01:59:31;27.55;;;24.75;;
28623;SDS011;15813;46.932;19.658;2024-03-25T02:01:56;23.02;;;21.00;;
28623;SDS011;15813;46.932;19.658;2024-03-25T02:04:22;24.42;;;22.00;;
28623;SDS011;15813;46.932;19.658;2024-03-25T02:06:48;23.58;;;21.55;;
28623;SDS011;15813;46.932;19.658;2024-03-25T02:09:14;22.05;;;20.10;;
28623;SDS011;15813;46.932;19.658;2024-03-25T02:11:39;22.35;;;20.38;;
28623;SDS011;15813;46.932;19.658;2024-03-25T02:14:06;23.38;;;21.08;;
28623;SDS011;15813;46.932;19.658;2024-03-25T02:16:31;26.23;;;23.67;;
28623;SDS011;15813;46.932;19.658;2024-03-25T02:18:57;25.15;;;22.75;;
28623;SDS011;15813;46.932;19.658;2024-03-25T02:21:22;25.05;;;22.67;;
28623;SDS011;15813;46.932;19.658;2024-03-25T02:23:47;23.70;;;21.58;;
28623;SDS011;15813;46.932;19.658;2024-03-25T02:26:15;23.17;;;21.10;;
28623;SDS011;15813;46.932;19.658;2024-03-25T02:28:40;25.02;;;22.40;;
28623;SDS011;15813;46.932;19.658;2024-03-25T02:31:05;24.65;;;22.50;;
28623;SDS011;15813;46.932;19.658;2024-03-25T02:33:31;24.25;;;21.85;;
28623;SDS011;15813;46.932;19.658;2024-03-25T02:35:56;25.63;;;23.17;;
28623;SDS011;15813;46.932;19.658;2024-03-25T02:38:21;25.15;;;22.73;;
28623;SDS011;15813;46.932;19.658;2024-03-25T02:40:47;24.50;;;22.20;;
28623;SDS011;15813;46.932;19.658;2024-03-25T02:43:13;27.30;;;24.65;;
28623;SDS011;15813;46.932;19.658;2024-03-25T02:45:38;25.92;;;23.40;;
28623;SDS011;15813;46.932;19.658;2024-03-25T02:48:04;25.85;;;23.58;;
28623;SDS011;15813;46.932;19.658;2024-03-25T02:50:29;27.17;;;24.67;;
28623;SDS011;15813;46.932;19.658;2024-03-25T02:52:54;27.23;;;24.58;;
28623;SDS011;15813;46.932;19.658;2024-03-25T02:55:20;26.55;;;24.08;;
28623;SDS011;15813;46.932;19.658;2024-03-25T02:57:45;27.40;;;25.02;;
28623;SDS011;15813;46.932;19.658;2024-03-25T03:00:10;25.63;;;23.42;;
28623;SDS011;15813;46.932;19.658;2024-03-25T03:02:36;28.27;;;25.58;;
28623;SDS011;15813;46.932;19.658;2024-03-25T03:05:01;29.13;;;26.27;;
28623;SDS011;15813;46.932;19.658;2024-03-25T03:07:28;27.48;;;24.88;;
28623;SDS011;15813;46.932;19.658;2024-03-25T03:09:54;28.73;;;26.23;;
28623;SDS011;15813;46.932;19.658;2024-03-25T03:12:19;28.35;;;25.92;;
28623;SDS011;15813;46.932;19.658;2024-03-25T03:14:45;27.67;;;25.35;;
28623;SDS011;15813;46.932;19.658;2024-03-25T03:17:10;28.30;;;25.60;;
28623;SDS011;15813;46.932;19.658;2024-03-25T03:19:35;27.90;;;24.92;;
28623;SDS011;15813;46.932;19.658;2024-03-25T03:22:01;28.20;;;25.42;;
28623;SDS011;15813;46.932;19.658;2024-03-25T03:24:27;28.65;;;25.92;;
28623;SDS011;15813;46.932;19.658;2024-03-25T03:26:52;27.77;;;25.45;;
28623;SDS011;15813;46.932;19.658;2024-03-25T03:29:18;28.48;;;26.02;;
28623;SDS011;15813;46.932;19.658;2024-03-25T03:31:43;27.02;;;24.65;;
28623;SDS011;15813;46.932;19.658;2024-03-25T03:34:09;24.65;;;22.33;;
28623;SDS011;15813;46.932;19.658;2024-03-25T03:36:34;29.58;;;26.80;;
28623;SDS011;15813;46.932;19.658;2024-03-25T03:38:59;28.85;;;26.27;;
28623;SDS011;15813;46.932;19.658;2024-03-25T03:41:25;29.20;;;26.48;;
28623;SDS011;15813;46.932;19.658;2024-03-25T03:43:50;27.02;;;24.63;;
28623;SDS011;15813;46.932;19.658;2024-03-25T03:46:15;28.02;;;25.70;;
28623;SDS011;15813;46.932;19.658;2024-03-25T03:48:40;26.80;;;24.60;;
28623;SDS011;15813;46.932;19.658;2024-03-25T03:51:06;26.88;;;24.42;;
28623;SDS011;15813;46.932;19.658;2024-03-25T03:53:32;28.15;;;25.73;;
28623;SDS011;15813;46.932;19.658;2024-03-25T03:55:57;28.88;;;26.42;;
28623;SDS011;15813;46.932;19.658;2024-03-25T03:58:23;28.10;;;25.67;;
28623;SDS011;15813;46.932;19.658;2024-03-25T04:00:48;27.27;;;24.90;;
28623;SDS011;15813;46.932;19.658;2024-03-25T04:03:14;28.40;;;25.67;;
28623;SDS011;15813;46.932;19.658;2024-03-25T04:05:39;26.85;;;24.20;;
28623;SDS011;15813;46.932;19.658;2024-03-25T04:08:04;27.65;;;25.25;;
28623;SDS011;15813;46.932;19.658;2024-03-25T04:10:30;28.55;;;26.00;;
28623;SDS011;15813;46.932;19.658;2024-03-25T04:12:55;28.42;;;25.98;;
28623;SDS011;15813;46.932;19.658;2024-03-25T04:15:21;26.00;;;23.58;;
28623;SDS011;15813;46.932;19.658;2024-03-25T04:17:47;27.13;;;24.90;;
28623;SDS011;15813;46.932;19.658;2024-03-25T04:20:14;25.23;;;23.23;;
28623;SDS011;15813;46.932;19.658;2024-03-25T04:22:43;26.25;;;23.95;;
28623;SDS011;15813;46.932;19.658;2024-03-25T04:25:11;29.85;;;27.30;;
28623;SDS011;15813;46.932;19.658;2024-03-25T04:27:38;29.48;;;26.92;;
28623;SDS011;15813;46.932;19.658;2024-03-25T04:30:03;27.25;;;24.88;;
28623;SDS011;15813;46.932;19.658;2024-03-25T04:32:28;26.40;;;24.17;;
28623;SDS011;15813;46.932;19.658;2024-03-25T04:34:54;27.10;;;24.85;;
28623;SDS011;15813;46.932;19.658;2024-03-25T04:37:19;29.92;;;27.48;;
28623;SDS011;15813;46.932;19.658;2024-03-25T04:39:45;25.42;;;23.42;;
28623;SDS011;15813;46.932;19.658;2024-03-25T04:42:11;26.95;;;24.70;;
28623;SDS011;15813;46.932;19.658;2024-03-25T04:44:36;27.95;;;25.48;;
28623;SDS011;15813;46.932;19.658;2024-03-25T04:47:02;28.17;;;25.63;;
28623;SDS011;15813;46.932;19.658;2024-03-25T04:49:27;28.38;;;25.73;;
28623;SDS011;15813;46.932;19.658;2024-03-25T04:51:52;27.92;;;25.63;;
28623;SDS011;15813;46.932;19.658;2024-03-25T04:54:18;26.90;;;24.70;;
28623;SDS011;15813;46.932;19.658;2024-03-25T04:56:43;25.90;;;23.88;;
28623;SDS011;15813;46.932;19.658;2024-03-25T04:59:09;25.95;;;23.95;;
28623;SDS011;15813;46.932;19.658;2024-03-25T05:01:34;27.52;;;25.40;;
28623;SDS011;15813;46.932;19.658;2024-03-25T05:04:00;30.17;;;27.33;;
28623;SDS011;15813;46.932;19.658;2024-03-25T05:06:26;27.40;;;25.15;;
28623;SDS011;15813;46.932;19.658;2024-03-25T05:08:51;28.80;;;26.15;;
28623;SDS011;15813;46.932;19.658;2024-03-25T05:11:16;26.25;;;24.10;;
28623;SDS011;15813;46.932;19.658;2024-03-25T05:13:41;25.38;;;23.20;;
28623;SDS011;15813;46.932;19.658;2024-03-25T05:16:07;29.35;;;26.75;;
28623;SDS011;15813;46.932;19.658;2024-03-25T05:18:32;27.27;;;24.95;;
28623;SDS011;15813;46.932;19.658;2024-03-25T05:20:57;29.70;;;26.92;;
28623;SDS011;15813;46.932;19.658;2024-03-25T05:23:22;26.27;;;23.95;;
28623;SDS011;15813;46.932;19.658;2024-03-25T05:25:48;29.70;;;27.10;;
28623;SDS011;15813;46.932;19.658;2024-03-25T05:28:13;23.52;;;21.55;;
28623;SDS011;15813;46.932;19.658;2024-03-25T05:30:38;27.33;;;24.90;;
28623;SDS011;15813;46.932;19.658;2024-03-25T05:33:04;26.70;;;24.42;;
28623;SDS011;15813;46.932;19.658;2024-03-25T05:35:29;27.58;;;25.05;;
28623;SDS011;15813;46.932;19.658;2024-03-25T05:37:55;29.10;;;26.40;;
28623;SDS011;15813;46.932;19.658;2024-03-25T05:40:21;27.13;;;24.75;;
28623;SDS011;15813;46.932;19.658;2024-03-25T05:42:46;26.05;;;23.95;;
28623;SDS011;15813;46.932;19.658;2024-03-25T05:45:11;29.27;;;26.85;;
28623;SDS011;15813;46.932;19.658;2024-03-25T05:47:37;28.40;;;25.88;;
28623;SDS011;15813;46.932;19.658;2024-03-25T05:50:02;29.02;;;26.60;;
28623;SDS011;15813;46.932;19.658;2024-03-25T05:52:30;27.23;;;25.08;;
28623;SDS011;15813;46.932;19.658;2024-03-25T05:54:55;27.23;;;25.00;;
28623;SDS011;15813;46.932;19.658;2024-03-25T05:57:21;32.03;;;29.13;;
28623;SDS011;15813;46.932;19.658;2024-03-25T05:59:46;28.13;;;25.73;;
28623;SDS011;15813;46.932;19.658;2024-03-25T06:02:11;29.30;;;26.80;;
28623;SDS011;15813;46.932;19.658;2024-03-25T06:04:37;29.33;;;26.83;;
28623;SDS011;15813;46.932;19.658;2024-03-25T06:07:02;31.30;;;28.58;;
28623;SDS011;15813;46.932;19.658;2024-03-25T06:09:27;31.20;;;27.88;;
28623;SDS011;15813;46.932;19.658;2024-03-25T06:11:52;27.67;;;25.27;;
28623;SDS011;15813;46.932;19.658;2024-03-25T06:14:18;27.75;;;25.38;;
28623;SDS011;15813;46.932;19.658;2024-03-25T06:16:43;27.38;;;25.02;;
28623;SDS011;15813;46.932;19.658;2024-03-25T06:19:08;28.25;;;26.00;;
28623;SDS011;15813;46.932;19.658;2024-03-25T06:21:34;27.23;;;24.95;;
28623;SDS011;15813;46.932;19.658;2024-03-25T06:23:59;30.27;;;27.48;;
28623;SDS011;15813;46.932;19.658;2024-03-25T06:26:24;27.00;;;24.65;;
28623;SDS011;15813;46.932;19.658;2024-03-25T06:28:49;28.52;;;25.90;;
28623;SDS011;15813;46.932;19.658;2024-03-25T06:31:15;28.13;;;25.90;;
28623;SDS011;15813;46.932;19.658;2024-03-25T06:33:59;30.95;;;28.02;;
28623;SDS011;15813;46.932;19.658;2024-03-25T06:36:40;28.45;;;25.75;;
28623;SDS011;15813;46.932;19.658;2024-03-25T06:39:06;27.08;;;24.88;;
28623;SDS011;15813;46.932;19.658;2024-03-25T06:41:31;28.33;;;26.00;;
28623;SDS011;15813;46.932;19.658;2024-03-25T06:43:56;26.52;;;24.35;;
28623;SDS011;15813;46.932;19.658;2024-03-25T06:46:21;27.50;;;25.38;;
28623;SDS011;15813;46.932;19.658;2024-03-25T06:48:47;26.20;;;24.08;;
28623;SDS011;15813;46.932;19.658;2024-03-25T06:51:12;28.00;;;25.52;;
28623;SDS011;15813;46.932;19.658;2024-03-25T06:53:37;26.90;;;24.73;;
28623;SDS011;15813;46.932;19.658;2024-03-25T06:56:03;23.98;;;21.92;;
28623;SDS011;15813;46.932;19.658;2024-03-25T06:58:28;24.10;;;21.67;;
28623;SDS011;15813;46.932;19.658;2024-03-25T07:00:54;25.80;;;23.58;;
28623;SDS011;15813;46.932;19.658;2024-03-25T07:03:20;36.47;;;32.88;;
28623;SDS011;15813;46.932;19.658;2024-03-25T07:05:46;31.65;;;28.98;;
28623;SDS011;15813;46.932;19.658;2024-03-25T07:08:12;32.17;;;27.88;;
28623;SDS011;15813;46.932;19.658;2024-03-25T07:10:37;30.67;;;27.63;;
28623;SDS011;15813;46.932;19.658;2024-03-25T07:13:02;26.23;;;23.73;;
28623;SDS011;15813;46.932;19.658;2024-03-25T07:15:28;30.75;;;27.50;;
28623;SDS011;15813;46.932;19.658;2024-03-25T07:17:53;29.63;;;26.77;;
28623;SDS011;15813;46.932;19.658;2024-03-25T07:20:18;34.75;;;31.75;;
28623;SDS011;15813;46.932;19.658;2024-03-25T07:22:44;33.88;;;31.02;;
28623;SDS011;15813;46.932;19.658;2024-03-25T07:25:11;490.48;;;93.53;;
28623;SDS011;15813;46.932;19.658;2024-03-25T07:27:36;2.83;;;1.55;;
28623;SDS011;15813;46.932;19.658;2024-03-25T07:30:03;2.38;;;1.50;;
28623;SDS011;15813;46.932;19.658;2024-03-25T07:32:31;2.80;;;1.30;;
28623;SDS011;15813;46.932;19.658;2024-03-25T07:34:56;5.38;;;1.90;;
28623;SDS011;15813;46.932;19.658;2024-03-25T07:37:22;6.35;;;1.65;;
28623;SDS011;15813;46.932;19.658;2024-03-25T07:39:47;3.38;;;1.27;;
28623;SDS011;15813;46.932;19.658;2024-03-25T07:42:12;3.33;;;1.25;;
28623;SDS011;15813;46.932;19.658;2024-03-25T07:44:39;3.97;;;1.88;;
28623;SDS011;15813;46.932;19.658;2024-03-25T07:47:04;4.15;;;1.77;;
28623;SDS011;15813;46.932;19.658;2024-03-25T07:49:30;2.78;;;1.33;;
28623;SDS011;15813;46.932;19.658;2024-03-25T07:51:55;3.03;;;1.85;;
28623;SDS011;15813;46.932;19.658;2024-03-25T07:54:21;3.05;;;1.48;;
28623;SDS011;15813;46.932;19.658;2024-03-25T07:56:46;3.17;;;1.40;;
28623;SDS011;15813;46.932;19.658;2024-03-25T07:59:12;4.13;;;1.40;;
28623;SDS011;15813;46.932;19.658;2024-03-25T08:01:37;2.33;;;1.23;;
28623;SDS011;15813;46.932;19.658;2024-03-25T08:04:03;2.22;;;1.40;;
28623;SDS011;15813;46.932;19.658;2024-03-25T08:06:28;5.28;;;1.23;;
28623;SDS011;15813;46.932;19.658;2024-03-25T08:08:53;1.52;;;1.30;;
28623;SDS011;15813;46.932;19.658;2024-03-25T08:11:19;2.03;;;1.05;;
28623;SDS011;15813;46.932;19.658;2024-03-25T08:13:44;5.70;;;1.30;;
28623;SDS011;15813;46.932;19.658;2024-03-25T08:16:09;1.90;;;1.20;;
28623;SDS011;15813;46.932;19.658;2024-03-25T08:18:34;2.22;;;1.15;;
28623;SDS011;15813;46.932;19.658;2024-03-25T08:21:00;2.88;;;1.13;;
28623;SDS011;15813;46.932;19.658;2024-03-25T08:23:25;1.90;;;1.30;;
28623;SDS011;15813;46.932;19.658;2024-03-25T08:25:50;2.88;;;1.08;;
28623;SDS011;15813;46.932;19.658;2024-03-25T08:28:16;1.98;;;1.20;;
28623;SDS011;15813;46.932;19.658;2024-03-25T08:30:41;1.75;;;1.15;;
28623;SDS011;15813;46.932;19.658;2024-03-25T08:33:06;3.35;;;1.33;;
28623;SDS011;15813;46.932;19.658;2024-03-25T08:35:31;2.58;;;1.23;;
28623;SDS011;15813;46.932;19.658;2024-03-25T08:37:57;2.80;;;1.05;;
28623;SDS011;15813;46.932;19.658;2024-03-25T08:40:22;2.03;;;1.30;;
28623;SDS011;15813;46.932;19.658;2024-03-25T08:42:48;2.78;;;1.70;;
28623;SDS011;15813;46.932;19.658;2024-03-25T08:45:13;1.50;;;1.40;;
28623;SDS011;15813;46.932;19.658;2024-03-25T08:47:38;1.92;;;1.50;;
28623;SDS011;15813;46.932;19.658;2024-03-25T08:50:05;2.17;;;1.30;;
28623;SDS011;15813;46.932;19.658;2024-03-25T08:52:31;3.00;;;1.40;;
28623;SDS011;15813;46.932;19.658;2024-03-25T08:54:56;1.85;;;1.30;;
28623;SDS011;15813;46.932;19.658;2024-03-25T08:57:21;3.97;;;1.38;;
28623;SDS011;15813;46.932;19.658;2024-03-25T08:59:46;2.75;;;0.98;;
28623;SDS011;15813;46.932;19.658;2024-03-25T09:02:12;2.45;;;1.20;;
28623;SDS011;15813;46.932;19.658;2024-03-25T09:04:37;2.63;;;1.50;;
28623;SDS011;15813;46.932;19.658;2024-03-25T09:07:02;5.07;;;1.80;;
28623;SDS011;15813;46.932;19.658;2024-03-25T09:09:28;2.45;;;1.50;;
28623;SDS011;15813;46.932;19.658;2024-03-25T09:12:11;2.67;;;1.23;;
28623;SDS011;15813;46.932;19.658;2024-03-25T09:14:37;9.05;;;1.83;;
28623;SDS011;15813;46.932;19.658;2024-03-25T09:17:03;1.30;;;1.20;;
28623;SDS011;15813;46.932;19.658;2024-03-25T09:19:28;3.15;;;1.38;;
28623;SDS011;15813;46.932;19.658;2024-03-25T09:21:54;1.52;;;1.30;;
28623;SDS011;15813;46.932;19.658;2024-03-25T09:24:19;2.78;;;1.52;;
28623;SDS011;15813;46.932;19.658;2024-03-25T09:26:44;2.47;;;1.50;;
28623;SDS011;15813;46.932;19.658;2024-03-25T09:29:11;1.83;;;1.30;;
28623;SDS011;15813;46.932;19.658;2024-03-25T09:31:37;3.65;;;1.83;;
28623;SDS011;15813;46.932;19.658;2024-03-25T09:34:02;1.77;;;1.40;;
28623;SDS011;15813;46.932;19.658;2024-03-25T09:36:27;3.05;;;1.50;;
28623;SDS011;15813;46.932;19.658;2024-03-25T09:38:52;2.85;;;1.50;;
28623;SDS011;15813;46.932;19.658;2024-03-25T09:41:18;2.13;;;1.30;;
28623;SDS011;15813;46.932;19.658;2024-03-25T09:43:44;3.83;;;1.60;;
28623;SDS011;15813;46.932;19.658;2024-03-25T09:46:13;1.85;;;1.40;;
28623;SDS011;15813;46.932;19.658;2024-03-25T09:48:38;3.35;;;1.50;;
28623;SDS011;15813;46.932;19.658;2024-03-25T09:51:04;4.00;;;1.83;;
28623;SDS011;15813;46.932;19.658;2024-03-25T09:53:29;2.83;;;1.60;;
28623;SDS011;15813;46.932;19.658;2024-03-25T09:55:56;4.53;;;1.80;;
28623;SDS011;15813;46.932;19.658;2024-03-25T09:58:21;1.73;;;1.30;;
28623;SDS011;15813;46.932;19.658;2024-03-25T10:00:47;3.47;;;1.77;;
28623;SDS011;15813;46.932;19.658;2024-03-25T10:03:12;1.52;;;1.25;;
28623;SDS011;15813;46.932;19.658;2024-03-25T10:05:39;2.90;;;1.25;;
28623;SDS011;15813;46.932;19.658;2024-03-25T10:08:04;2.20;;;1.35;;
28623;SDS011;15813;46.932;19.658;2024-03-25T10:10:30;5.45;;;1.42;;
28623;SDS011;15813;46.932;19.658;2024-03-25T10:12:56;2.10;;;1.45;;
28623;SDS011;15813;46.932;19.658;2024-03-25T10:15:21;2.00;;;1.30;;
28623;SDS011;15813;46.932;19.658;2024-03-25T10:17:48;2.88;;;1.25;;
28623;SDS011;15813;46.932;19.658;2024-03-25T10:20:14;1.63;;;1.33;;
28623;SDS011;15813;46.932;19.658;2024-03-25T10:22:42;2.70;;;1.52;;
28623;SDS011;15813;46.932;19.658;2024-03-25T10:25:18;5.25;;;1.33;;
28623;SDS011;15813;46.932;19.658;2024-03-25T10:27:52;3.33;;;1.20;;
28623;SDS011;15813;46.932;19.658;2024-03-25T10:30:17;4.25;;;1.30;;
28623;SDS011;15813;46.932;19.658;2024-03-25T10:32:44;8.00;;;1.70;;
28623;SDS011;15813;46.932;19.658;2024-03-25T10:35:09;2.90;;;1.20;;
28623;SDS011;15813;46.932;19.658;2024-03-25T10:37:34;3.08;;;1.10;;
28623;SDS011;15813;46.932;19.658;2024-03-25T10:40:00;1.75;;;1.13;;
28623;SDS011;15813;46.932;19.658;2024-03-25T10:42:26;1.48;;;1.05;;
28623;SDS011;15813;46.932;19.658;2024-03-25T10:44:51;4.28;;;1.10;;
28623;SDS011;15813;46.932;19.658;2024-03-25T10:47:21;3.83;;;1.10;;
28623;SDS011;15813;46.932;19.658;2024-03-25T10:49:49;1.73;;;0.90;;
28623;SDS011;15813;46.932;19.658;2024-03-25T10:52:14;6.47;;;1.25;;
28623;SDS011;15813;46.932;19.658;2024-03-25T10:54:40;1.75;;;0.98;;
28623;SDS011;15813;46.932;19.658;2024-03-25T10:57:06;2.60;;;1.08;;
28623;SDS011;15813;46.932;19.658;2024-03-25T10:59:32;1.42;;;0.90;;
28623;SDS011;15813;46.932;19.658;2024-03-25T11:02:02;1.23;;;1.00;;
28623;SDS011;15813;46.932;19.658;2024-03-25T11:04:28;3.65;;;1.20;;
28623;SDS011;15813;46.932;19.658;2024-03-25T11:06:53;3.67;;;1.20;;
28623;SDS011;15813;46.932;19.658;2024-03-25T11:09:24;2.33;;;1.20;;
28623;SDS011;15813;46.932;19.658;2024-03-25T11:11:53;3.22;;;1.00;;
28623;SDS011;15813;46.932;19.658;2024-03-25T11:14:18;1.23;;;0.90;;
28623;SDS011;15813;46.932;19.658;2024-03-25T11:16:50;2.20;;;0.80;;
28623;SDS011;15813;46.932;19.658;2024-03-25T11:19:17;1.30;;;0.77;;
28623;SDS011;15813;46.932;19.658;2024-03-25T11:21:42;1.48;;;1.27;;
28623;SDS011;15813;46.932;19.658;2024-03-25T11:24:07;4.57;;;1.00;;
28623;SDS011;15813;46.932;19.658;2024-03-25T11:26:33;4.80;;;1.40;;
28623;SDS011;15813;46.932;19.658;2024-03-25T11:29:00;1.63;;;1.10;;
28623;SDS011;15813;46.932;19.658;2024-03-25T11:31:26;2.95;;;1.00;;
28623;SDS011;15813;46.932;19.658;2024-03-25T11:33:52;0.85;;;0.77;;
28623;SDS011;15813;46.932;19.658;2024-03-25T11:36:17;6.03;;;0.70;;
28623;SDS011;15813;46.932;19.658;2024-03-25T11:38:44;4.68;;;0.80;;
28623;SDS011;15813;46.932;19.658;2024-03-25T11:41:12;1.80;;;0.73;;
28623;SDS011;15813;46.932;19.658;2024-03-25T11:43:37;4.40;;;0.95;;
28623;SDS011;15813;46.932;19.658;2024-03-25T11:46:03;1.48;;;0.80;;
28623;SDS011;15813;46.932;19.658;2024-03-25T11:48:32;1.65;;;1.17;;
28623;SDS011;15813;46.932;19.658;2024-03-25T11:53:22;2.25;;;0.80;;
28623;SDS011;15813;46.932;19.658;2024-03-25T11:55:48;2.40;;;1.13;;
28623;SDS011;15813;46.932;19.658;2024-03-25T11:58:13;4.07;;;1.05;;
28623;SDS011;15813;46.932;19.658;2024-03-25T12:00:43;1.85;;;0.90;;
28623;SDS011;15813;46.932;19.658;2024-03-25T12:03:08;1.05;;;0.95;;
28623;SDS011;15813;46.932;19.658;2024-03-25T12:05:33;4.18;;;2.25;;
28623;SDS011;15813;46.932;19.658;2024-03-25T12:07:59;34.77;;;13.27;;
28623;SDS011;15813;46.932;19.658;2024-03-25T12:10:24;45.45;;;20.15;;
28623;SDS011;15813;46.932;19.658;2024-03-25T12:13:08;9.15;;;2.15;;
28623;SDS011;15813;46.932;19.658;2024-03-25T12:15:33;3.13;;;1.02;;
28623;SDS011;15813;46.932;19.658;2024-03-25T12:17:58;1.33;;;0.80;;
28623;SDS011;15813;46.932;19.658;2024-03-25T12:20:24;1.10;;;0.80;;
28623;SDS011;15813;46.932;19.658;2024-03-25T12:22:50;4.45;;;1.00;;
28623;SDS011;15813;46.932;19.658;2024-03-25T12:25:15;5.32;;;1.08;;
28623;SDS011;15813;46.932;19.658;2024-03-25T12:27:45;2.20;;;0.90;;
28623;SDS011;15813;46.932;19.658;2024-03-25T12:30:11;3.70;;;1.25;;
28623;SDS011;15813;46.932;19.658;2024-03-25T12:32:37;1.02;;;0.80;;
28623;SDS011;15813;46.932;19.658;2024-03-25T12:35:03;2.22;;;0.90;;
28623;SDS011;15813;46.932;19.658;2024-03-25T12:37:30;2.25;;;0.80;;
28623;SDS011;15813;46.932;19.658;2024-03-25T12:39:55;1.52;;;0.80;;
28623;SDS011;15813;46.932;19.658;2024-03-25T12:42:23;1.40;;;0.68;;
28623;SDS011;15813;46.932;19.658;2024-03-25T12:44:48;0.70;;;0.63;;
28623;SDS011;15813;46.932;19.658;2024-03-25T12:47:14;5.88;;;2.30;;
28623;SDS011;15813;46.932;19.658;2024-03-25T12:49:39;1.60;;;0.80;;
28623;SDS011;15813;46.932;19.658;2024-03-25T12:52:05;4.35;;;0.90;;
28623;SDS011;15813;46.932;19.658;2024-03-25T12:54:30;1.83;;;0.70;;
28623;SDS011;15813;46.932;19.658;2024-03-25T12:56:56;1.50;;;0.82;;
28623;SDS011;15813;46.932;19.658;2024-03-25T12:59:21;1.63;;;0.88;;
28623;SDS011;15813;46.932;19.658;2024-03-25T13:01:47;1.48;;;1.30;;
28623;SDS011;15813;46.932;19.658;2024-03-25T13:04:12;9.57;;;1.30;;
28623;SDS011;15813;46.932;19.658;2024-03-25T13:06:38;2.17;;;1.88;;
28623;SDS011;15813;46.932;19.658;2024-03-25T13:09:18;1.88;;;1.00;;
28623;SDS011;15813;46.932;19.658;2024-03-25T13:11:44;3.60;;;1.05;;
28623;SDS011;15813;46.932;19.658;2024-03-25T13:14:11;3.83;;;1.70;;
28623;SDS011;15813;46.932;19.658;2024-03-25T13:16:36;3.05;;;0.90;;
28623;SDS011;15813;46.932;19.658;2024-03-25T13:19:01;1.20;;;0.90;;
28623;SDS011;15813;46.932;19.658;2024-03-25T13:21:26;2.83;;;1.00;;
28623;SDS011;15813;46.932;19.658;2024-03-25T13:23:52;2.97;;;0.93;;
28623;SDS011;15813;46.932;19.658;2024-03-25T13:26:17;2.92;;;1.00;;
28623;SDS011;15813;46.932;19.658;2024-03-25T13:28:42;5.57;;;1.00;;
28623;SDS011;15813;46.932;19.658;2024-03-25T13:31:08;5.38;;;1.10;;
28623;SDS011;15813;46.932;19.658;2024-03-25T13:33:33;2.17;;;1.15;;
28623;SDS011;15813;46.932;19.658;2024-03-25T13:35:58;2.80;;;1.00;;
28623;SDS011;15813;46.932;19.658;2024-03-25T13:38:24;3.67;;;1.20;;
28623;SDS011;15813;46.932;19.658;2024-03-25T13:40:49;5.07;;;1.25;;
28623;SDS011;15813;46.932;19.658;2024-03-25T13:43:15;3.10;;;1.02;;
28623;SDS011;15813;46.932;19.658;2024-03-25T13:45:45;2.47;;;1.20;;
28623;SDS011;15813;46.932;19.658;2024-03-25T13:48:11;1.30;;;0.98;;
28623;SDS011;15813;46.932;19.658;2024-03-25T13:50:36;2.10;;;0.82;;
28623;SDS011;15813;46.932;19.658;2024-03-25T13:53:02;2.80;;;1.05;;
28623;SDS011;15813;46.932;19.658;2024-03-25T13:55:27;2.70;;;0.93;;
28623;SDS011;15813;46.932;19.658;2024-03-25T13:57:53;1.00;;;0.95;;
28623;SDS011;15813;46.932;19.658;2024-03-25T14:00:18;1.70;;;1.00;;
28623;SDS011;15813;46.932;19.658;2024-03-25T14:02:43;5.47;;;1.38;;
28623;SDS011;15813;46.932;19.658;2024-03-25T14:05:09;3.97;;;1.48;;
28623;SDS011;15813;46.932;19.658;2024-03-25T14:07:34;2.33;;;1.20;;
28623;SDS011;15813;46.932;19.658;2024-03-25T14:09:59;3.10;;;1.33;;
28623;SDS011;15813;46.932;19.658;2024-03-25T14:12:25;1.42;;;1.20;;
28623;SDS011;15813;46.932;19.658;2024-03-25T14:14:50;1.45;;;0.98;;